sensor_id;sensor_type;location;lat;lon;timestamp;pressure;altitude;pressure_sealevel;temperature;humidity
23303;BME280;11820;48.738;9.092;2023-04-27T00:00:42;96361.88;;;9.41;100.00
23303;BME280;11820;48.738;9.092;2023-04-27T00:03:07;96365.38;;;9.33;100.00
23303;BME280;11820;48.738;9.092;2023-04-27T00:05:34;96360.59;;;9.30;100.00
23303;BME280;11820;48.738;9.092;2023-04-27T00:08:00;96358.28;;;9.21;100.00
23303;BME280;11820;48.738;9.092;2023-04-27T00:10:26;96355.91;;;9.05;100.00
23303;BME280;11820;48.738;9.092;2023-04-27T00:12:51;96358.78;;;9.10;100.00
23303;BME280;11820;48.738;9.092;2023-04-27T00:15:17;96357.03;;;8.96;100.00
23303;BME280;11820;48.738;9.092;2023-04-27T00:17:42;96359.59;;;8.96;100.00
23303;BME280;11820;48.738;9.092;2023-04-27T00:20:08;96357.88;;;9.03;100.00
23303;BME280;11820;48.738;9.092;2023-04-27T00:22:36;96350.75;;;9.05;100.00
23303;BME280;11820;48.738;9.092;2023-04-27T00:25:01;96352.38;;;9.06;100.00
23303;BME280;11820;48.738;9.092;2023-04-27T00:27:27;96347.47;;;9.11;100.00
23303;BME280;11820;48.738;9.092;2023-04-27T00:29:52;96349.16;;;9.04;100.00
23303;BME280;11820;48.738;9.092;2023-04-27T00:32:17;96343.47;;;9.08;100.00
23303;BME280;11820;48.738;9.092;2023-04-27T00:34:43;96348.38;;;9.03;100.00
23303;BME280;11820;48.738;9.092;2023-04-27T00:37:08;96346.25;;;9.07;100.00
23303;BME280;11820;48.738;9.092;2023-04-27T00:39:34;96340.56;;;8.97;100.00
23303;BME280;11820;48.738;9.092;2023-04-27T00:42:00;96332.72;;;9.05;100.00
23303;BME280;11820;48.738;9.092;2023-04-27T00:44:26;96333.47;;;9.20;100.00
23303;BME280;11820;48.738;9.092;2023-04-27T00:46:52;96329.06;;;9.14;100.00
23303;BME280;11820;48.738;9.092;2023-04-27T00:49:19;96332.41;;;9.14;100.00
23303;BME280;11820;48.738;9.092;2023-04-27T00:51:45;96335.94;;;9.07;100.00
23303;BME280;11820;48.738;9.092;2023-04-27T00:54:12;96326.56;;;8.85;100.00
23303;BME280;11820;48.738;9.092;2023-04-27T00:56:37;96332.22;;;8.95;100.00
23303;BME280;11820;48.738;9.092;2023-04-27T00:59:03;96326.31;;;9.01;100.00
23303;BME280;11820;48.738;9.092;2023-04-27T01:01:29;96331.59;;;8.93;100.00
23303;BME280;11820;48.738;9.092;2023-04-27T01:03:54;96328.41;;;8.91;100.00
23303;BME280;11820;48.738;9.092;2023-04-27T01:06:20;96330.63;;;8.94;100.00
23303;BME280;11820;48.738;9.092;2023-04-27T01:08:45;96332.59;;;8.92;100.00
23303;BME280;11820;48.738;9.092;2023-04-27T01:11:11;96327.88;;;8.95;100.00
23303;BME280;11820;48.738;9.092;2023-04-27T01:13:36;96342.00;;;8.99;100.00
23303;BME280;11820;48.738;9.092;2023-04-27T01:16:01;96341.31;;;8.91;100.00
23303;BME280;11820;48.738;9.092;2023-04-27T01:18:27;96339.09;;;8.88;100.00
23303;BME280;11820;48.738;9.092;2023-04-27T01:20:52;96343.38;;;8.66;100.00
23303;BME280;11820;48.738;9.092;2023-04-27T01:23:17;96342.09;;;8.77;100.00
23303;BME280;11820;48.738;9.092;2023-04-27T01:25:43;96338.38;;;8.79;100.00
23303;BME280;11820;48.738;9.092;2023-04-27T01:28:08;96336.50;;;8.88;100.00
23303;BME280;11820;48.738;9.092;2023-04-27T01:30:34;96337.81;;;8.98;100.00
23303;BME280;11820;48.738;9.092;2023-04-27T01:32:59;96344.84;;;8.90;100.00
23303;BME280;11820;48.738;9.092;2023-04-27T01:35:24;96341.91;;;8.93;100.00
23303;BME280;11820;48.738;9.092;2023-04-27T01:37:50;96337.94;;;8.76;100.00
23303;BME280;11820;48.738;9.092;2023-04-27T01:40:15;96333.56;;;8.91;100.00
23303;BME280;11820;48.738;9.092;2023-04-27T01:42:41;96336.31;;;8.89;100.00
23303;BME280;11820;48.738;9.092;2023-04-27T01:45:06;96332.34;;;8.87;100.00
23303;BME280;11820;48.738;9.092;2023-04-27T01:47:32;96331.88;;;8.83;100.00
23303;BME280;11820;48.738;9.092;2023-04-27T01:49:57;96324.84;;;8.92;100.00
23303;BME280;11820;48.738;9.092;2023-04-27T01:52:23;96329.22;;;8.77;100.00
23303;BME280;11820;48.738;9.092;2023-04-27T01:54:48;96335.19;;;8.77;100.00
23303;BME280;11820;48.738;9.092;2023-04-27T01:57:14;96337.56;;;8.79;100.00
23303;BME280;11820;48.738;9.092;2023-04-27T01:59:40;96345.25;;;8.72;100.00
23303;BME280;11820;48.738;9.092;2023-04-27T02:02:05;96344.34;;;8.65;100.00
23303;BME280;11820;48.738;9.092;2023-04-27T02:04:30;96341.25;;;8.70;100.00
23303;BME280;11820;48.738;9.092;2023-04-27T02:06:56;96336.91;;;8.70;100.00
23303;BME280;11820;48.738;9.092;2023-04-27T02:09:21;96345.06;;;8.74;100.00
23303;BME280;11820;48.738;9.092;2023-04-27T02:11:46;96347.00;;;8.72;100.00
23303;BME280;11820;48.738;9.092;2023-04-27T02:14:12;96336.53;;;8.73;100.00
23303;BME280;11820;48.738;9.092;2023-04-27T02:16:38;96351.31;;;8.50;100.00
23303;BME280;11820;48.738;9.092;2023-04-27T02:19:03;96356.72;;;8.55;100.00
23303;BME280;11820;48.738;9.092;2023-04-27T02:21:29;96352.63;;;8.61;100.00
23303;BME280;11820;48.738;9.092;2023-04-27T02:23:54;96352.63;;;8.61;100.00
23303;BME280;11820;48.738;9.092;2023-04-27T02:26:20;96358.47;;;8.55;100.00
23303;BME280;11820;48.738;9.092;2023-04-27T02:28:46;96361.16;;;8.47;100.00
23303;BME280;11820;48.738;9.092;2023-04-27T02:31:14;96364.00;;;8.52;100.00
23303;BME280;11820;48.738;9.092;2023-04-27T02:33:40;96360.09;;;8.56;100.00
23303;BME280;11820;48.738;9.092;2023-04-27T02:36:07;96358.03;;;8.66;100.00
23303;BME280;11820;48.738;9.092;2023-04-27T02:38:32;96356.81;;;8.62;100.00
23303;BME280;11820;48.738;9.092;2023-04-27T02:40:57;96365.88;;;8.58;100.00
23303;BME280;11820;48.738;9.092;2023-04-27T02:43:23;96360.25;;;8.69;100.00
23303;BME280;11820;48.738;9.092;2023-04-27T02:45:48;96363.66;;;8.69;100.00
23303;BME280;11820;48.738;9.092;2023-04-27T02:48:14;96368.34;;;8.66;100.00
23303;BME280;11820;48.738;9.092;2023-04-27T02:50:40;96370.47;;;8.62;100.00
23303;BME280;11820;48.738;9.092;2023-04-27T02:53:06;96370.41;;;8.56;100.00
23303;BME280;11820;48.738;9.092;2023-04-27T02:55:31;96371.47;;;8.47;100.00
23303;BME280;11820;48.738;9.092;2023-04-27T02:57:57;96368.16;;;8.53;100.00
23303;BME280;11820;48.738;9.092;2023-04-27T03:00:22;96364.53;;;8.62;100.00
23303;BME280;11820;48.738;9.092;2023-04-27T03:02:47;96368.97;;;8.68;100.00
23303;BME280;11820;48.738;9.092;2023-04-27T03:05:13;96368.09;;;8.61;100.00
23303;BME280;11820;48.738;9.092;2023-04-27T03:07:38;96363.31;;;8.58;100.00
23303;BME280;11820;48.738;9.092;2023-04-27T03:10:04;96354.59;;;8.59;100.00
23303;BME280;11820;48.738;9.092;2023-04-27T03:12:29;96360.78;;;8.50;100.00
23303;BME280;11820;48.738;9.092;2023-04-27T03:14:54;96360.38;;;8.61;100.00
23303;BME280;11820;48.738;9.092;2023-04-27T03:17:20;96363.56;;;8.63;100.00
23303;BME280;11820;48.738;9.092;2023-04-27T03:19:46;96356.19;;;8.60;100.00
23303;BME280;11820;48.738;9.092;2023-04-27T03:22:13;96358.31;;;8.56;100.00
23303;BME280;11820;48.738;9.092;2023-04-27T03:24:38;96360.09;;;8.70;100.00
23303;BME280;11820;48.738;9.092;2023-04-27T03:27:03;96368.47;;;8.58;100.00
23303;BME280;11820;48.738;9.092;2023-04-27T03:29:29;96363.56;;;8.48;100.00
23303;BME280;11820;48.738;9.092;2023-04-27T03:31:54;96367.13;;;8.47;100.00
23303;BME280;11820;48.738;9.092;2023-04-27T03:34:19;96369.69;;;8.62;100.00
23303;BME280;11820;48.738;9.092;2023-04-27T03:36:45;96363.56;;;8.63;100.00
23303;BME280;11820;48.738;9.092;2023-04-27T03:39:11;96362.59;;;8.64;100.00
23303;BME280;11820;48.738;9.092;2023-04-27T03:41:36;96363.09;;;8.74;100.00
23303;BME280;11820;48.738;9.092;2023-04-27T03:44:02;96359.81;;;8.65;100.00
23303;BME280;11820;48.738;9.092;2023-04-27T03:46:27;96362.84;;;8.69;100.00
23303;BME280;11820;48.738;9.092;2023-04-27T03:48:52;96359.66;;;8.67;100.00
23303;BME280;11820;48.738;9.092;2023-04-27T03:51:18;96360.63;;;8.66;100.00
23303;BME280;11820;48.738;9.092;2023-04-27T03:53:43;96360.44;;;8.53;100.00
23303;BME280;11820;48.738;9.092;2023-04-27T03:56:08;96355.75;;;8.56;100.00
23303;BME280;11820;48.738;9.092;2023-04-27T03:58:34;96357.53;;;8.56;100.00
23303;BME280;11820;48.738;9.092;2023-04-27T04:00:59;96373.88;;;8.48;100.00
23303;BME280;11820;48.738;9.092;2023-04-27T04:03:25;96366.50;;;8.45;100.00
23303;BME280;11820;48.738;9.092;2023-04-27T04:05:50;96366.56;;;8.37;100.00
23303;BME280;11820;48.738;9.092;2023-04-27T04:08:15;96369.50;;;8.49;100.00
23303;BME280;11820;48.738;9.092;2023-04-27T04:10:41;96368.16;;;8.53;100.00
23303;BME280;11820;48.738;9.092;2023-04-27T04:13:06;96373.16;;;8.54;100.00
23303;BME280;11820;48.738;9.092;2023-04-27T04:15:31;96372.34;;;8.54;100.00
23303;BME280;11820;48.738;9.092;2023-04-27T04:17:57;96366.03;;;8.56;100.00
23303;BME280;11820;48.738;9.092;2023-04-27T04:20:22;96372.28;;;8.47;100.00
23303;BME280;11820;48.738;9.092;2023-04-27T04:22:48;96373.41;;;8.45;100.00
23303;BME280;11820;48.738;9.092;2023-04-27T04:25:13;96376.88;;;8.52;100.00
23303;BME280;11820;48.738;9.092;2023-04-27T04:27:39;96379.28;;;8.39;100.00
23303;BME280;11820;48.738;9.092;2023-04-27T04:30:05;96376.97;;;8.44;100.00
23303;BME280;11820;48.738;9.092;2023-04-27T04:32:31;96381.97;;;8.45;100.00
23303;BME280;11820;48.738;9.092;2023-04-27T04:34:57;96383.63;;;8.53;100.00
23303;BME280;11820;48.738;9.092;2023-04-27T04:37:23;96379.66;;;8.65;100.00
23303;BME280;11820;48.738;9.092;2023-04-27T04:39:48;96390.47;;;8.60;100.00
23303;BME280;11820;48.738;9.092;2023-04-27T04:42:14;96386.81;;;8.55;100.00
23303;BME280;11820;48.738;9.092;2023-04-27T04:44:40;96386.03;;;8.69;100.00
23303;BME280;11820;48.738;9.092;2023-04-27T04:47:05;96385.16;;;8.47;100.00
23303;BME280;11820;48.738;9.092;2023-04-27T04:49:31;96380.72;;;8.56;100.00
23303;BME280;11820;48.738;9.092;2023-04-27T04:51:56;96386.75;;;8.63;100.00
23303;BME280;11820;48.738;9.092;2023-04-27T04:54:22;96388.00;;;8.67;100.00
23303;BME280;11820;48.738;9.092;2023-04-27T04:56:47;96381.13;;;8.74;100.00
23303;BME280;11820;48.738;9.092;2023-04-27T04:59:12;96387.19;;;8.81;100.00
23303;BME280;11820;48.738;9.092;2023-04-27T05:01:38;96386.28;;;8.88;100.00
23303;BME280;11820;48.738;9.092;2023-04-27T05:04:03;96379.09;;;8.98;100.00
23303;BME280;11820;48.738;9.092;2023-04-27T05:06:29;96383.88;;;9.01;100.00
23303;BME280;11820;48.738;9.092;2023-04-27T05:08:54;96389.28;;;9.06;100.00
23303;BME280;11820;48.738;9.092;2023-04-27T05:11:20;96384.94;;;9.07;100.00
23303;BME280;11820;48.738;9.092;2023-04-27T05:13:46;96382.97;;;9.09;100.00
23303;BME280;11820;48.738;9.092;2023-04-27T05:16:12;96388.13;;;9.09;100.00
23303;BME280;11820;48.738;9.092;2023-04-27T05:18:37;96376.03;;;9.09;100.00
23303;BME280;11820;48.738;9.092;2023-04-27T05:21:02;96381.72;;;9.05;100.00
23303;BME280;11820;48.738;9.092;2023-04-27T05:23:27;96384.56;;;9.10;100.00
23303;BME280;11820;48.738;9.092;2023-04-27T05:25:53;96387.22;;;9.16;100.00
23303;BME280;11820;48.738;9.092;2023-04-27T05:28:18;96390.06;;;9.21;100.00
23303;BME280;11820;48.738;9.092;2023-04-27T05:30:44;96389.69;;;9.24;100.00
23303;BME280;11820;48.738;9.092;2023-04-27T05:33:09;96386.56;;;9.29;100.00
23303;BME280;11820;48.738;9.092;2023-04-27T05:35:34;96392.78;;;9.34;100.00
23303;BME280;11820;48.738;9.092;2023-04-27T05:38:00;96404.91;;;9.34;100.00
23303;BME280;11820;48.738;9.092;2023-04-27T05:40:26;96400.75;;;9.39;100.00
23303;BME280;11820;48.738;9.092;2023-04-27T05:42:52;96405.03;;;9.47;100.00
23303;BME280;11820;48.738;9.092;2023-04-27T05:45:17;96402.00;;;9.43;100.00
23303;BME280;11820;48.738;9.092;2023-04-27T05:47:43;96401.69;;;9.53;100.00
23303;BME280;11820;48.738;9.092;2023-04-27T05:50:08;96408.47;;;9.54;100.00
23303;BME280;11820;48.738;9.092;2023-04-27T05:52:34;96411.72;;;9.62;100.00
23303;BME280;11820;48.738;9.092;2023-04-27T05:54:59;96413.94;;;9.65;100.00
23303;BME280;11820;48.738;9.092;2023-04-27T05:57:25;96413.78;;;9.66;100.00
23303;BME280;11820;48.738;9.092;2023-04-27T05:59:51;96419.19;;;9.71;100.00
23303;BME280;11820;48.738;9.092;2023-04-27T06:02:17;96416.16;;;9.68;100.00
23303;BME280;11820;48.738;9.092;2023-04-27T06:04:43;96410.91;;;9.82;100.00
23303;BME280;11820;48.738;9.092;2023-04-27T06:07:10;96412.56;;;9.83;100.00
23303;BME280;11820;48.738;9.092;2023-04-27T06:09:36;96414.38;;;9.89;100.00
23303;BME280;11820;48.738;9.092;2023-04-27T06:12:02;96416.84;;;9.97;100.00
23303;BME280;11820;48.738;9.092;2023-04-27T06:14:29;96417.22;;;9.94;100.00
23303;BME280;11820;48.738;9.092;2023-04-27T06:16:54;96419.69;;;10.02;100.00
23303;BME280;11820;48.738;9.092;2023-04-27T06:19:20;96417.66;;;9.98;100.00
23303;BME280;11820;48.738;9.092;2023-04-27T06:21:45;96420.50;;;10.03;100.00
23303;BME280;11820;48.738;9.092;2023-04-27T06:24:10;96429.09;;;10.10;100.00
23303;BME280;11820;48.738;9.092;2023-04-27T06:26:36;96428.94;;;10.18;100.00
23303;BME280;11820;48.738;9.092;2023-04-27T06:29:01;96428.22;;;10.24;100.00
23303;BME280;11820;48.738;9.092;2023-04-27T06:31:28;96425.44;;;10.25;100.00
23303;BME280;11820;48.738;9.092;2023-04-27T06:33:53;96433.44;;;10.30;100.00
23303;BME280;11820;48.738;9.092;2023-04-27T06:36:19;96431.50;;;10.39;100.00
23303;BME280;11820;48.738;9.092;2023-04-27T06:38:44;96436.72;;;10.45;100.00
23303;BME280;11820;48.738;9.092;2023-04-27T06:41:10;96433.75;;;10.48;100.00
23303;BME280;11820;48.738;9.092;2023-04-27T06:43:35;96436.59;;;10.53;100.00
23303;BME280;11820;48.738;9.092;2023-04-27T06:46:01;96432.63;;;10.57;100.00
23303;BME280;11820;48.738;9.092;2023-04-27T06:48:26;96439.66;;;10.63;100.00
23303;BME280;11820;48.738;9.092;2023-04-27T06:50:51;96437.66;;;10.65;100.00
23303;BME280;11820;48.738;9.092;2023-04-27T06:53:17;96435.31;;;10.70;100.00
23303;BME280;11820;48.738;9.092;2023-04-27T06:55:42;96441.69;;;10.74;100.00
23303;BME280;11820;48.738;9.092;2023-04-27T06:58:07;96436.91;;;10.71;100.00
23303;BME280;11820;48.738;9.092;2023-04-27T07:00:33;96443.06;;;10.70;100.00
23303;BME280;11820;48.738;9.092;2023-04-27T07:02:58;96441.91;;;10.79;100.00
23303;BME280;11820;48.738;9.092;2023-04-27T07:05:24;96439.75;;;10.83;100.00
23303;BME280;11820;48.738;9.092;2023-04-27T07:07:49;96439.00;;;10.89;100.00
23303;BME280;11820;48.738;9.092;2023-04-27T07:10:15;96447.41;;;10.97;100.00
23303;BME280;11820;48.738;9.092;2023-04-27T07:12:41;96434.31;;;11.05;100.00
23303;BME280;11820;48.738;9.092;2023-04-27T07:15:07;96431.31;;;11.08;100.00
23303;BME280;11820;48.738;9.092;2023-04-27T07:17:32;96440.31;;;11.12;100.00
23303;BME280;11820;48.738;9.092;2023-04-27T07:19:58;96438.31;;;11.08;100.00
23303;BME280;11820;48.738;9.092;2023-04-27T07:22:25;96441.06;;;11.06;100.00
23303;BME280;11820;48.738;9.092;2023-04-27T07:24:50;96437.09;;;11.10;100.00
23303;BME280;11820;48.738;9.092;2023-04-27T07:27:16;96449.44;;;11.08;100.00
23303;BME280;11820;48.738;9.092;2023-04-27T07:29:41;96437.09;;;11.10;100.00
23303;BME280;11820;48.738;9.092;2023-04-27T07:32:07;96442.28;;;11.10;100.00
23303;BME280;11820;48.738;9.092;2023-04-27T07:34:33;96436.94;;;11.12;100.00
23303;BME280;11820;48.738;9.092;2023-04-27T07:37:00;96431.19;;;11.16;100.00
23303;BME280;11820;48.738;9.092;2023-04-27T07:39:26;96433.94;;;11.15;100.00
23303;BME280;11820;48.738;9.092;2023-04-27T07:41:52;96428.38;;;11.18;100.00
23303;BME280;11820;48.738;9.092;2023-04-27T07:44:17;96428.81;;;11.21;100.00
23303;BME280;11820;48.738;9.092;2023-04-27T07:46:44;96432.44;;;11.27;100.00
23303;BME280;11820;48.738;9.092;2023-04-27T07:49:11;96429.25;;;11.25;100.00
23303;BME280;11820;48.738;9.092;2023-04-27T07:51:37;96436.19;;;11.24;100.00
23303;BME280;11820;48.738;9.092;2023-04-27T07:54:02;96438.00;;;11.30;100.00
23303;BME280;11820;48.738;9.092;2023-04-27T07:56:28;96433.66;;;11.37;100.00
23303;BME280;11820;48.738;9.092;2023-04-27T07:58:53;96425.50;;;11.40;100.00
23303;BME280;11820;48.738;9.092;2023-04-27T08:01:18;96428.50;;;11.50;100.00
23303;BME280;11820;48.738;9.092;2023-04-27T08:03:45;96425.78;;;11.64;100.00
23303;BME280;11820;48.738;9.092;2023-04-27T08:06:10;96426.59;;;11.71;100.00
23303;BME280;11820;48.738;9.092;2023-04-27T08:08:35;96429.00;;;11.73;100.00
23303;BME280;11820;48.738;9.092;2023-04-27T08:11:01;96432.63;;;11.78;100.00
23303;BME280;11820;48.738;9.092;2023-04-27T08:13:26;96419.88;;;11.83;100.00
23303;BME280;11820;48.738;9.092;2023-04-27T08:15:51;96424.06;;;11.91;100.00
23303;BME280;11820;48.738;9.092;2023-04-27T08:18:22;96426.66;;;11.91;100.00
23303;BME280;11820;48.738;9.092;2023-04-27T08:20:47;96415.28;;;11.92;100.00
23303;BME280;11820;48.738;9.092;2023-04-27T08:23:13;96415.09;;;12.00;100.00
23303;BME280;11820;48.738;9.092;2023-04-27T08:25:38;96416.50;;;12.02;100.00
23303;BME280;11820;48.738;9.092;2023-04-27T08:28:03;96417.88;;;12.05;100.00
23303;BME280;11820;48.738;9.092;2023-04-27T08:30:28;96409.13;;;12.06;100.00
23303;BME280;11820;48.738;9.092;2023-04-27T08:32:54;96413.09;;;12.02;99.50
23303;BME280;11820;48.738;9.092;2023-04-27T08:35:19;96406.94;;;12.09;100.00
23303;BME280;11820;48.738;9.092;2023-04-27T08:37:44;96404.13;;;12.17;100.00
23303;BME280;11820;48.738;9.092;2023-04-27T08:40:10;96404.72;;;12.19;100.00
23303;BME280;11820;48.738;9.092;2023-04-27T08:42:35;96408.31;;;12.25;100.00
23303;BME280;11820;48.738;9.092;2023-04-27T08:45:01;96398.75;;;12.38;100.00
23303;BME280;11820;48.738;9.092;2023-04-27T08:47:26;96400.34;;;12.52;98.69
23303;BME280;11820;48.738;9.092;2023-04-27T08:49:52;96396.25;;;12.88;96.21
23303;BME280;11820;48.738;9.092;2023-04-27T08:52:17;96391.47;;;12.98;94.57
23303;BME280;11820;48.738;9.092;2023-04-27T08:54:42;96394.00;;;13.18;91.76
23303;BME280;11820;48.738;9.092;2023-04-27T08:57:11;96396.41;;;13.13;91.13
23303;BME280;11820;48.738;9.092;2023-04-27T08:59:38;96389.69;;;13.36;91.35
23303;BME280;11820;48.738;9.092;2023-04-27T09:02:04;96385.19;;;13.63;89.93
23303;BME280;11820;48.738;9.092;2023-04-27T09:04:39;96390.00;;;13.59;88.14
23303;BME280;11820;48.738;9.092;2023-04-27T09:07:15;96390.09;;;13.77;87.00
23303;BME280;11820;48.738;9.092;2023-04-27T09:09:41;96396.81;;;13.91;85.32
23303;BME280;11820;48.738;9.092;2023-04-27T09:12:14;96392.34;;;13.98;84.93
23303;BME280;11820;48.738;9.092;2023-04-27T09:14:40;96389.94;;;13.97;82.46
23303;BME280;11820;48.738;9.092;2023-04-27T09:17:07;96396.06;;;14.09;83.26
23303;BME280;11820;48.738;9.092;2023-04-27T09:19:32;96402.00;;;14.22;82.29
23303;BME280;11820;48.738;9.092;2023-04-27T09:22:08;96399.41;;;14.22;81.83
23303;BME280;11820;48.738;9.092;2023-04-27T09:24:49;96408.22;;;14.21;83.34
23303;BME280;11820;48.738;9.092;2023-04-27T09:27:19;96410.63;;;14.16;82.03
23303;BME280;11820;48.738;9.092;2023-04-27T09:29:45;96400.03;;;14.18;81.59
23303;BME280;11820;48.738;9.092;2023-04-27T09:32:17;96395.03;;;14.41;82.46
23303;BME280;11820;48.738;9.092;2023-04-27T09:34:45;96380.88;;;14.37;78.33
23303;BME280;11820;48.738;9.092;2023-04-27T09:37:11;96386.28;;;14.35;78.28
23303;BME280;11820;48.738;9.092;2023-04-27T09:39:37;96394.41;;;14.21;76.99
23303;BME280;11820;48.738;9.092;2023-04-27T09:42:03;96394.19;;;14.22;77.57
23303;BME280;11820;48.738;9.092;2023-04-27T09:44:30;96399.00;;;14.19;76.22
23303;BME280;11820;48.738;9.092;2023-04-27T09:46:59;96396.00;;;14.22;75.72
23303;BME280;11820;48.738;9.092;2023-04-27T09:49:26;96388.63;;;14.43;78.18
23303;BME280;11820;48.738;9.092;2023-04-27T09:51:55;96396.31;;;14.32;74.71
23303;BME280;11820;48.738;9.092;2023-04-27T09:54:25;96399.56;;;14.27;75.03
23303;BME280;11820;48.738;9.092;2023-04-27T10:02:25;96391.63;;;15.00;73.20
23303;BME280;11820;48.738;9.092;2023-04-27T10:07:46;96388.13;;;15.24;71.81
23303;BME280;11820;48.738;9.092;2023-04-27T10:10:16;96386.28;;;15.13;71.24
23303;BME280;11820;48.738;9.092;2023-04-27T10:12:42;96394.09;;;14.95;69.73
23303;BME280;11820;48.738;9.092;2023-04-27T10:15:15;96393.88;;;14.97;70.39
23303;BME280;11820;48.738;9.092;2023-04-27T10:17:48;96396.63;;;15.38;69.62
23303;BME280;11820;48.738;9.092;2023-04-27T10:20:14;96398.00;;;15.40;68.70
23303;BME280;11820;48.738;9.092;2023-04-27T10:22:47;96390.53;;;15.08;67.18
23303;BME280;11820;48.738;9.092;2023-04-27T10:25:37;96390.81;;;14.82;69.63
23303;BME280;11820;48.738;9.092;2023-04-27T10:28:02;96390.88;;;14.58;74.19
23303;BME280;11820;48.738;9.092;2023-04-27T10:30:33;96393.84;;;14.61;75.74
23303;BME280;11820;48.738;9.092;2023-04-27T10:33:06;96395.34;;;14.51;73.79
23303;BME280;11820;48.738;9.092;2023-04-27T10:35:34;96399.09;;;14.55;74.64
23303;BME280;11820;48.738;9.092;2023-04-27T10:38:16;96392.63;;;14.99;76.46
23303;BME280;11820;48.738;9.092;2023-04-27T10:41:02;96388.50;;;15.28;75.54
23303;BME280;11820;48.738;9.092;2023-04-27T10:43:31;96388.88;;;15.13;72.52
23303;BME280;11820;48.738;9.092;2023-04-27T10:46:11;96390.91;;;15.29;72.68
23303;BME280;11820;48.738;9.092;2023-04-27T10:48:41;96378.47;;;15.31;71.48
23303;BME280;11820;48.738;9.092;2023-04-27T10:51:07;96374.59;;;15.52;70.81
23303;BME280;11820;48.738;9.092;2023-04-27T10:53:36;96374.03;;;15.91;70.56
23303;BME280;11820;48.738;9.092;2023-04-27T10:56:02;96374.88;;;16.14;70.03
23303;BME280;11820;48.738;9.092;2023-04-27T10:58:31;96377.16;;;16.22;68.77
23303;BME280;11820;48.738;9.092;2023-04-27T11:00:56;96367.22;;;16.42;68.22
23303;BME280;11820;48.738;9.092;2023-04-27T11:03:22;96374.88;;;16.14;67.89
23303;BME280;11820;48.738;9.092;2023-04-27T11:05:58;96384.50;;;16.02;68.11
23303;BME280;11820;48.738;9.092;2023-04-27T11:08:24;96371.06;;;15.76;67.73
23303;BME280;11820;48.738;9.092;2023-04-27T11:10:50;96371.88;;;15.88;68.05
23303;BME280;11820;48.738;9.092;2023-04-27T11:13:21;96364.50;;;15.85;68.51
23303;BME280;11820;48.738;9.092;2023-04-27T11:15:50;96370.69;;;15.72;68.10
23303;BME280;11820;48.738;9.092;2023-04-27T11:18:17;96364.16;;;15.52;67.67
23303;BME280;11820;48.738;9.092;2023-04-27T11:20:48;96370.31;;;15.57;68.85
23303;BME280;11820;48.738;9.092;2023-04-27T11:23:27;96373.28;;;15.43;68.84
23303;BME280;11820;48.738;9.092;2023-04-27T11:25:53;96367.63;;;15.34;70.47
23303;BME280;11820;48.738;9.092;2023-04-27T11:28:20;96365.41;;;15.49;71.09
23303;BME280;11820;48.738;9.092;2023-04-27T11:30:46;96359.81;;;15.75;74.71
23303;BME280;11820;48.738;9.092;2023-04-27T11:33:13;96361.38;;;15.65;72.60
23303;BME280;11820;48.738;9.092;2023-04-27T11:35:39;96356.25;;;15.99;74.17
23303;BME280;11820;48.738;9.092;2023-04-27T11:38:04;96370.69;;;15.72;72.64
23303;BME280;11820;48.738;9.092;2023-04-27T11:40:30;96376.16;;;15.71;71.89
23303;BME280;11820;48.738;9.092;2023-04-27T11:42:59;96374.56;;;15.81;71.82
23303;BME280;11820;48.738;9.092;2023-04-27T11:45:28;96375.13;;;15.72;70.60
23303;BME280;11820;48.738;9.092;2023-04-27T11:47:56;96374.94;;;15.85;71.51
23303;BME280;11820;48.738;9.092;2023-04-27T11:50:23;96372.28;;;15.73;71.28
23303;BME280;11820;48.738;9.092;2023-04-27T11:52:49;96374.47;;;15.88;72.10
23303;BME280;11820;48.738;9.092;2023-04-27T11:55:15;96362.91;;;15.84;72.43
23303;BME280;11820;48.738;9.092;2023-04-27T11:57:41;96369.13;;;15.83;72.08
23303;BME280;11820;48.738;9.092;2023-04-27T12:00:06;96359.31;;;16.08;72.73
23303;BME280;11820;48.738;9.092;2023-04-27T12:02:35;96360.13;;;16.08;71.63
23303;BME280;11820;48.738;9.092;2023-04-27T12:05:01;96359.34;;;16.30;70.75
23303;BME280;11820;48.738;9.092;2023-04-27T12:07:27;96353.03;;;16.38;70.08
23303;BME280;11820;48.738;9.092;2023-04-27T12:09:52;96360.25;;;16.70;71.27
23303;BME280;11820;48.738;9.092;2023-04-27T12:12:17;96356.22;;;16.51;68.54
23303;BME280;11820;48.738;9.092;2023-04-27T12:14:46;96349.41;;;16.50;70.91
23303;BME280;11820;48.738;9.092;2023-04-27T12:17:11;96339.25;;;16.77;70.61
23303;BME280;11820;48.738;9.092;2023-04-27T12:19:37;96343.91;;;16.86;68.13
23303;BME280;11820;48.738;9.092;2023-04-27T12:22:03;96339.91;;;16.84;67.27
23303;BME280;11820;48.738;9.092;2023-04-27T12:24:28;96341.78;;;16.72;68.17
23303;BME280;11820;48.738;9.092;2023-04-27T12:26:54;96341.38;;;16.91;67.65
23303;BME280;11820;48.738;9.092;2023-04-27T12:29:19;96335.63;;;17.17;67.92
23303;BME280;11820;48.738;9.092;2023-04-27T12:31:45;96335.16;;;17.20;67.38
23303;BME280;11820;48.738;9.092;2023-04-27T12:34:11;96339.88;;;17.46;66.88
23303;BME280;11820;48.738;9.092;2023-04-27T12:36:36;96331.25;;;18.23;66.08
23303;BME280;11820;48.738;9.092;2023-04-27T12:39:16;96331.03;;;18.79;66.44
23303;BME280;11820;48.738;9.092;2023-04-27T12:41:51;96337.00;;;18.96;66.15
23303;BME280;11820;48.738;9.092;2023-04-27T12:44:17;96342.53;;;17.91;65.19
23303;BME280;11820;48.738;9.092;2023-04-27T12:46:44;96344.75;;;17.54;67.38
23303;BME280;11820;48.738;9.092;2023-04-27T12:49:10;96334.66;;;17.46;67.33
23303;BME280;11820;48.738;9.092;2023-04-27T12:51:36;96332.06;;;17.35;68.74
23303;BME280;11820;48.738;9.092;2023-04-27T12:54:03;96339.50;;;16.75;70.31
23303;BME280;11820;48.738;9.092;2023-04-27T12:56:28;96333.13;;;16.71;71.54
23303;BME280;11820;48.738;9.092;2023-04-27T12:58:54;96343.63;;;16.60;71.61
23303;BME280;11820;48.738;9.092;2023-04-27T13:01:20;96337.22;;;16.56;70.07